Time;durP1;ratioP1;P1;durP2;ratioP2;P2;SDS_P1;SDS_P2;PMS_P1;PMS_P2;Temp;Humidity;BMP_temperature;BMP_pressure;BME280_temperature;BME280_humidity;BME280_pressure;Samples;Min_cycle;Max_cycle;Signal;HPM_P1;HPM_P2
2021/09/05 00:01:44;;;;;;;3.80;3.40;;;;;;;;;;10280392;28;20084;-63
2021/09/05 00:06:43;;;;;;;6.63;3.88;;;;;;;;;;10280311;28;20080;-63
2021/09/05 00:11:42;;;;;;;4.65;3.35;;;;;;;;;;10280297;28;20072;-63
2021/09/05 00:16:41;;;;;;;5.70;3.35;;;;;;;;;;10280218;28;20446;-63
2021/09/05 00:21:39;;;;;;;6.38;3.75;;;;;;;;;;10279850;28;20087;-63
2021/09/05 00:26:38;;;;;;;6.55;3.38;;;;;;;;;;10279756;28;20041;-63
2021/09/05 00:31:37;;;;;;;6.88;3.83;;;;;;;;;;10279656;28;20040;-63
2021/09/05 00:36:36;;;;;;;5.38;3.80;;;;;;;;;;10278267;28;20525;-63
2021/09/05 00:41:35;;;;;;;5.80;3.30;;;;;;;;;;10278528;28;20493;-63
2021/09/05 00:46:34;;;;;;;4.57;3.42;;;;;;;;;;10278017;28;20514;-63
2021/09/05 00:51:35;;;;;;;6.45;4.15;;;;;;;;;;10278772;28;20406;-63
2021/09/05 00:56:39;;;;;;;6.05;3.70;;;;;;;;;;10277196;28;20060;-63
2021/09/05 01:01:37;;;;;;;5.88;3.40;;;;;;;;;;10276805;28;20053;-63
2021/09/05 01:06:39;;;;;;;4.93;3.17;;;;;;;;;;10277222;28;20045;-63
2021/09/05 01:11:41;;;;;;;3.63;3.03;;;;;;;;;;10278085;28;20041;-62
2021/09/05 01:16:41;;;;;;;8.30;4.47;;;;;;;;;;10276877;28;20049;-62
2021/09/05 01:22:00;;;;;;;5.07;4.00;;;;;;;;;;10283047;28;20084;-63
2021/09/05 01:27:22;;;;;;;5.13;3.78;;;;;;;;;;10278289;28;20060;-63
2021/09/05 01:32:39;;;;;;;9.63;4.72;;;;;;;;;;10281281;28;20479;-62
2021/09/05 01:38:01;;;;;;;5.93;3.45;;;;;;;;;;10277294;28;20091;-62
2021/09/05 01:43:36;;;;;;;13.23;5.57;;;;;;;;;;10274501;28;20088;-62
2021/09/05 01:49:01;;;;;;;6.03;4.55;;;;;;;;;;10275407;28;20048;-63
2021/09/05 01:54:19;;;;;;;8.57;5.30;;;;;;;;;;10279953;28;20486;-62
2021/09/05 01:59:47;;;;;;;8.95;5.78;;;;;;;;;;10277962;28;20608;-63
2021/09/05 02:05:09;;;;;;;12.80;6.70;;;;;;;;;;10276195;28;20076;-62
2021/09/05 02:10:33;;;;;;;8.17;5.07;;;;;;;;;;10267469;28;20057;-63
2021/09/05 02:15:51;;;;;;;9.45;6.07;;;;;;;;;;10284506;28;20053;-63
2021/09/05 02:21:13;;;;;;;7.50;4.60;;;;;;;;;;10276529;28;20473;-63
2021/09/05 02:26:24;;;;;;;9.50;6.10;;;;;;;;;;10274089;28;20053;-63
2021/09/05 02:31:43;;;;;;;10.95;6.80;;;;;;;;;;10281497;28;20049;-63
2021/09/05 02:37:10;;;;;;;9.25;5.90;;;;;;;;;;10276388;28;20084;-63
2021/09/05 02:42:26;;;;;;;6.25;4.78;;;;;;;;;;10275508;28;20076;-63
2021/09/05 02:47:52;;;;;;;5.75;4.20;;;;;;;;;;10274200;28;20053;-63
2021/09/05 02:53:08;;;;;;;9.65;4.28;;;;;;;;;;10275911;28;20049;-63
2021/09/05 02:58:25;;;;;;;8.00;4.72;;;;;;;;;;10273658;28;20498;-62
2021/09/05 03:03:43;;;;;;;5.43;3.55;;;;;;;;;;10275376;28;20089;-62
2021/09/05 03:09:04;;;;;;;6.75;4.53;;;;;;;;;;10281647;28;20095;-63
2021/09/05 03:14:21;;;;;;;6.35;3.80;;;;;;;;;;10286780;28;20077;-63
2021/09/05 03:19:51;;;;;;;5.45;3.60;;;;;;;;;;10282446;28;20072;-62
2021/09/05 03:25:12;;;;;;;4.80;3.58;;;;;;;;;;10280352;28;20088;-64
2021/09/05 03:30:31;;;;;;;6.10;3.95;;;;;;;;;;10281724;28;20434;-63
2021/09/05 03:35:54;;;;;;;5.03;3.65;;;;;;;;;;10282456;28;20064;-63
2021/09/05 03:41:10;;;;;;;7.90;4.35;;;;;;;;;;10288515;28;20088;-63
2021/09/05 03:46:29;;;;;;;4.93;4.00;;;;;;;;;;10281045;28;20044;-63
2021/09/05 03:51:51;;;;;;;5.55;3.60;;;;;;;;;;10280609;28;20060;-63
2021/09/05 03:56:52;;;;;;;7.25;4.40;;;;;;;;;;10279605;28;20517;-63
2021/09/05 04:01:51;;;;;;;6.80;4.05;;;;;;;;;;10278847;28;20403;-63
2021/09/05 04:07:03;;;;;;;5.72;3.75;;;;;;;;;;10279183;28;20061;-63
2021/09/05 04:12:06;;;;;;;8.02;4.13;;;;;;;;;;10278282;28;20064;-64
2021/09/05 04:17:05;;;;;;;5.53;3.88;;;;;;;;;;10279092;28;20048;-64
2021/09/05 04:22:05;;;;;;;10.75;5.72;;;;;;;;;;10280135;28;20085;-64
2021/09/05 04:27:03;;;;;;;12.75;5.55;;;;;;;;;;10279925;28;20045;-64
2021/09/05 04:32:02;;;;;;;10.38;5.65;;;;;;;;;;10279998;28;20041;-63
2021/09/05 04:37:00;;;;;;;10.55;5.53;;;;;;;;;;10278979;28;20077;-64
2021/09/05 04:42:00;;;;;;;10.70;5.82;;;;;;;;;;10278364;28;20108;-63
2021/09/05 04:46:58;;;;;;;9.68;6.47;;;;;;;;;;10278555;28;20069;-64
2021/09/05 04:51:56;;;;;;;11.10;6.47;;;;;;;;;;10278787;28;20445;-64
2021/09/05 04:56:54;;;;;;;9.82;6.05;;;;;;;;;;10299124;28;20406;-63
2021/09/05 05:01:54;;;;;;;11.45;6.80;;;;;;;;;;10293015;28;20096;-62
2021/09/05 05:06:53;;;;;;;62.88;47.90;;;;;;;;;;10294692;28;20051;-62
2021/09/05 05:11:51;;;;;;;16.38;9.75;;;;;;;;;;10318806;28;20048;-63
2021/09/05 05:16:50;;;;;;;17.27;9.93;;;;;;;;;;10279108;28;20076;-64
2021/09/05 05:21:49;;;;;;;13.45;11.82;;;;;;;;;;10277767;28;20505;-64
2021/09/05 05:26:47;;;;;;;13.13;8.75;;;;;;;;;;10285207;28;20076;-63
2021/09/05 05:31:46;;;;;;;23.42;8.70;;;;;;;;;;10317593;28;20044;-64
2021/09/05 05:36:44;;;;;;;15.18;10.15;;;;;;;;;;10316995;28;20040;-63
2021/09/05 05:41:44;;;;;;;16.42;7.60;;;;;;;;;;10317137;28;20068;-64
2021/09/05 05:46:42;;;;;;;12.02;6.55;;;;;;;;;;10317257;28;20060;-63
2021/09/05 05:51:41;;;;;;;8.55;5.45;;;;;;;;;;10316747;28;20049;-64
2021/09/05 05:56:39;;;;;;;9.65;6.00;;;;;;;;;;10315611;28;20417;-63
2021/09/05 06:01:41;;;;;;;8.25;5.80;;;;;;;;;;10316359;28;20544;-64
2021/09/05 06:06:40;;;;;;;8.63;5.10;;;;;;;;;;10316501;28;20048;-63
2021/09/05 06:11:38;;;;;;;9.07;3.90;;;;;;;;;;10305734;28;20037;-65
2021/09/05 06:16:38;;;;;;;8.25;4.60;;;;;;;;;;10284491;28;20049;-63
2021/09/05 06:21:40;;;;;;;11.73;5.95;;;;;;;;;;10268344;28;20072;-64
2021/09/05 06:26:39;;;;;;;10.93;5.25;;;;;;;;;;10272771;28;20459;-64
2021/09/05 06:31:37;;;;;;;9.38;4.65;;;;;;;;;;10273205;28;20084;-64
2021/09/05 06:36:36;;;;;;;9.70;4.38;;;;;;;;;;10274544;28;20052;-65
2021/09/05 06:41:35;;;;;;;4.55;4.00;;;;;;;;;;10278771;28;20041;-64
2021/09/05 06:46:34;;;;;;;8.52;4.78;;;;;;;;;;10283569;28;20072;-64
2021/09/05 06:51:32;;;;;;;10.60;4.43;;;;;;;;;;10283231;28;20071;-63
2021/09/05 06:56:31;;;;;;;11.45;6.13;;;;;;;;;;10283834;28;20049;-63
2021/09/05 07:01:32;;;;;;;10.32;5.70;;;;;;;;;;10280441;28;20487;-64
2021/09/05 07:06:31;;;;;;;13.63;7.35;;;;;;;;;;10280826;28;20501;-64
2021/09/05 07:11:29;;;;;;;11.27;6.40;;;;;;;;;;10280199;28;20076;-63
2021/09/05 07:16:28;;;;;;;6.35;5.35;;;;;;;;;;10281003;28;20056;-62
2021/09/05 07:21:27;;;;;;;12.10;6.82;;;;;;;;;;10282104;28;20081;-63
2021/09/05 07:26:26;;;;;;;10.75;7.55;;;;;;;;;;10282218;28;20080;-64
2021/09/05 07:31:24;;;;;;;12.90;11.05;;;;;;;;;;10281784;28;20069;-64
2021/09/05 07:36:22;;;;;;;9.23;6.63;;;;;;;;;;10296081;28;20068;-63
2021/09/05 07:41:22;;;;;;;15.85;9.02;;;;;;;;;;10321765;28;20083;-64
2021/09/05 07:46:20;;;;;;;13.07;7.15;;;;;;;;;;10317282;28;20072;-64
2021/09/05 07:51:23;;;;;;;12.27;7.75;;;;;;;;;;10308148;28;20064;-62
2021/09/05 07:56:23;;;;;;;12.50;7.00;;;;;;;;;;10299365;28;20064;-64
2021/09/05 08:01:21;;;;;;;8.23;7.18;;;;;;;;;;10297614;28;20540;-64
2021/09/05 08:06:20;;;;;;;10.85;7.95;;;;;;;;;;10317996;28;20493;-64
2021/09/05 08:11:18;;;;;;;15.00;8.68;;;;;;;;;;10311342;28;20144;-64
2021/09/05 08:16:18;;;;;;;14.85;8.20;;;;;;;;;;10298847;28;20065;-64
2021/09/05 08:21:19;;;;;;;13.77;7.65;;;;;;;;;;10296343;28;20068;-64
2021/09/05 08:26:19;;;;;;;13.43;7.38;;;;;;;;;;10297929;28;20080;-64
2021/09/05 08:31:18;;;;;;;8.80;6.93;;;;;;;;;;10293522;28;20083;-64
2021/09/05 08:36:17;;;;;;;15.07;7.35;;;;;;;;;;10285008;28;20505;-63
2021/09/05 08:41:15;;;;;;;11.68;6.55;;;;;;;;;;10319177;28;20068;-64
2021/09/05 08:46:14;;;;;;;14.88;6.72;;;;;;;;;;10302626;28;20076;-63
2021/09/05 08:51:14;;;;;;;9.73;6.20;;;;;;;;;;10293532;28;20442;-62
2021/09/05 08:56:12;;;;;;;11.57;6.20;;;;;;;;;;10313234;28;20064;-63
2021/09/05 09:01:17;;;;;;;15.23;7.03;;;;;;;;;;10315227;28;20087;-63
2021/09/05 09:06:21;;;;;;;11.57;6.00;;;;;;;;;;10273914;28;20111;-64
2021/09/05 09:11:19;;;;;;;10.13;6.40;;;;;;;;;;10311673;28;20118;-64
2021/09/05 09:16:17;;;;;;;14.25;6.22;;;;;;;;;;10317712;28;20123;-63
2021/09/05 09:21:18;;;;;;;12.10;7.00;;;;;;;;;;10317501;28;20531;-64
2021/09/05 09:26:18;;;;;;;9.65;6.93;;;;;;;;;;10318003;28;20079;-63
2021/09/05 09:31:17;;;;;;;10.23;5.53;;;;;;;;;;10317056;28;20060;-65
2021/09/05 09:36:16;;;;;;;11.15;6.40;;;;;;;;;;10315099;28;20053;-65
2021/09/05 09:41:16;;;;;;;10.70;5.00;;;;;;;;;;10316858;28;20072;-64
2021/09/05 09:46:16;;;;;;;7.38;6.25;;;;;;;;;;10316636;28;20071;-63
2021/09/05 09:51:15;;;;;;;9.93;5.70;;;;;;;;;;10316627;28;20048;-63
2021/09/05 09:56:16;;;;;;;8.38;5.10;;;;;;;;;;10316435;28;20052;-64
2021/09/05 10:01:17;;;;;;;9.32;5.18;;;;;;;;;;10316172;28;20372;-64
2021/09/05 10:06:15;;;;;;;11.50;5.78;;;;;;;;;;10316013;28;20072;-64
2021/09/05 10:11:16;;;;;;;11.80;6.88;;;;;;;;;;10316388;28;20265;-64
2021/09/05 10:16:16;;;;;;;11.48;6.20;;;;;;;;;;10315442;28;20079;-64
2021/09/05 10:21:15;;;;;;;12.13;6.18;;;;;;;;;;10315517;28;20466;-64
2021/09/05 10:26:14;;;;;;;16.70;6.93;;;;;;;;;;10315562;28;20513;-64
2021/09/05 10:31:13;;;;;;;7.93;5.50;;;;;;;;;;10289457;28;20505;-65
2021/09/05 10:36:13;;;;;;;13.88;7.32;;;;;;;;;;10274570;28;20049;-64
2021/09/05 10:41:14;;;;;;;7.55;6.22;;;;;;;;;;10275199;28;20052;-63
2021/09/05 10:46:14;;;;;;;16.95;13.32;;;;;;;;;;10300909;28;20321;-63
2021/09/05 10:51:14;;;;;;;15.30;10.00;;;;;;;;;;10314909;28;20087;-65
2021/09/05 10:56:15;;;;;;;7.85;6.18;;;;;;;;;;10315253;28;20049;-63
2021/09/05 11:01:34;;;;;;;8.18;5.72;;;;;;;;;;10314560;28;20533;-65
2021/09/05 11:06:35;;;;;;;10.90;7.50;;;;;;;;;;10282181;28;20088;-64
2021/09/05 11:11:48;;;;;;;6.45;5.57;;;;;;;;;;10303049;28;20463;-64
2021/09/05 11:16:48;;;;;;;9.38;6.13;;;;;;;;;;10314690;28;20087;-63
2021/09/05 11:21:49;;;;;;;7.72;5.68;;;;;;;;;;10314376;28;20045;-63
2021/09/05 11:26:58;;;;;;;12.27;9.50;;;;;;;;;;10316837;28;20269;-64
2021/09/05 11:31:59;;;;;;;14.65;6.90;;;;;;;;;;10321737;28;20072;-64
2021/09/05 11:37:00;;;;;;;7.57;4.85;;;;;;;;;;10322123;28;20064;-63
2021/09/05 11:41:59;;;;;;;7.45;5.88;;;;;;;;;;10321644;28;20174;-64
2021/09/05 11:47:17;;;;;;;6.35;5.60;;;;;;;;;;10322055;28;20091;-63
2021/09/05 11:52:20;;;;;;;9.82;5.47;;;;;;;;;;10321104;28;20087;-63
2021/09/05 11:57:19;;;;;;;10.20;5.47;;;;;;;;;;10319521;28;20064;-64
2021/09/05 12:02:26;;;;;;;10.90;5.00;;;;;;;;;;10320392;28;20101;-63
2021/09/05 12:07:27;;;;;;;7.00;4.65;;;;;;;;;;10320846;28;20083;-64
2021/09/05 12:12:25;;;;;;;8.23;4.38;;;;;;;;;;10320715;28;20418;-62
2021/09/05 12:17:28;;;;;;;8.95;5.00;;;;;;;;;;10320547;28;20508;-62
2021/09/05 12:22:40;;;;;;;9.55;4.80;;;;;;;;;;10320185;28;20056;-62
2021/09/05 12:27:39;;;;;;;7.28;5.43;;;;;;;;;;10318815;28;20084;-64
2021/09/05 12:32:38;;;;;;;24.38;19.10;;;;;;;;;;10318227;28;20433;-62
2021/09/05 12:37:38;;;;;;;20.58;17.98;;;;;;;;;;10317284;28;20475;-63
2021/09/05 12:42:46;;;;;;;12.00;8.70;;;;;;;;;;10319532;28;20036;-63
2021/09/05 12:47:44;;;;;;;10.02;6.22;;;;;;;;;;10319098;28;20072;-63
2021/09/05 12:52:44;;;;;;;5.88;4.88;;;;;;;;;;10281009;28;20037;-63
2021/09/05 12:57:43;;;;;;;13.52;5.80;;;;;;;;;;10278597;28;20048;-63
2021/09/05 13:02:41;;;;;;;12.40;5.55;;;;;;;;;;10277736;28;20060;-64
2021/09/05 13:07:40;;;;;;;8.80;4.75;;;;;;;;;;10278134;28;20486;-62
2021/09/05 13:12:41;;;;;;;7.65;5.57;;;;;;;;;;10274483;28;20073;-63
2021/09/05 13:17:40;;;;;;;6.40;5.07;;;;;;;;;;10275738;28;20475;-63
2021/09/05 13:22:39;;;;;;;10.57;5.90;;;;;;;;;;10275846;28;20080;-64
2021/09/05 13:27:40;;;;;;;6.60;5.85;;;;;;;;;;10276760;28;20075;-64
2021/09/05 13:32:42;;;;;;;13.60;6.07;;;;;;;;;;10277492;28;20041;-64
2021/09/05 13:37:41;;;;;;;9.15;6.07;;;;;;;;;;10276373;28;20087;-64
2021/09/05 13:42:41;;;;;;;6.95;4.60;;;;;;;;;;10277423;28;20513;-64
2021/09/05 13:47:42;;;;;;;6.32;5.32;;;;;;;;;;10316464;28;20068;-64
2021/09/05 13:52:42;;;;;;;13.30;5.85;;;;;;;;;;10316521;28;20068;-64
2021/09/05 13:57:41;;;;;;;11.93;5.70;;;;;;;;;;10316976;28;20048;-63
2021/09/05 14:02:42;;;;;;;9.05;5.88;;;;;;;;;;10315663;28;20079;-64
2021/09/05 14:07:41;;;;;;;7.13;6.03;;;;;;;;;;10316628;28;20075;-63
2021/09/05 14:12:39;;;;;;;10.63;6.20;;;;;;;;;;10316514;28;20044;-64
2021/09/05 14:17:39;;;;;;;6.95;5.68;;;;;;;;;;10312937;28;20060;-64
2021/09/05 14:22:40;;;;;;;9.88;5.43;;;;;;;;;;10314582;28;20086;-64
2021/09/05 14:27:44;;;;;;;10.32;6.65;;;;;;;;;;10275877;28;20080;-64
2021/09/05 14:32:49;;;;;;;12.95;6.75;;;;;;;;;;10274721;28;20514;-64
2021/09/05 14:48:28;;;;;;;11.45;6.05;;;;;;;;;;10273927;28;20072;-64
2021/09/05 14:58:56;;;;;;;13.80;7.53;;;;;;;;;;10275157;28;20461;-65
2021/09/05 15:04:00;;;;;;;13.77;7.97;;;;;;;;;;10276973;28;20131;-66
2021/09/05 15:14:17;;;;;;;18.90;8.45;;;;;;;;;;10278834;28;20490;-65
2021/09/05 15:19:16;;;;;;;12.60;10.20;;;;;;;;;;10281528;28;20076;-65
2021/09/05 15:24:18;;;;;;;11.45;7.47;;;;;;;;;;10282371;28;20077;-65
2021/09/05 15:29:34;;;;;;;13.80;7.40;;;;;;;;;;10282397;28;20084;-66
2021/09/05 15:48:45;;;;;;;22.63;16.60;;;;;;;;;;10258682;28;20531;-63
2021/09/05 15:55:50;;;;;;;14.25;9.93;;;;;;;;;;10320977;28;20091;-65
2021/09/05 16:00:56;;;;;;;28.73;24.42;;;;;;;;;;10320442;28;20080;-65
2021/09/05 16:16:33;;;;;;;57.03;50.78;;;;;;;;;;10288785;28;20073;-65
2021/09/05 16:21:32;;;;;;;327.95;294.70;;;;;;;;;;10298227;28;20079;-65
2021/09/05 16:26:32;;;;;;;19.48;15.95;;;;;;;;;;10311679;28;20466;-65
2021/09/05 16:31:36;;;;;;;117.65;106.25;;;;;;;;;;10306854;28;20080;-65
2021/09/05 16:36:58;;;;;;;60.72;51.00;;;;;;;;;;10314923;28;20091;-65
2021/09/05 16:41:58;;;;;;;23.77;16.65;;;;;;;;;;10314001;28;20083;-66
2021/09/05 16:47:00;;;;;;;55.67;44.60;;;;;;;;;;10316220;28;20083;-65
2021/09/05 16:51:58;;;;;;;29.63;18.00;;;;;;;;;;10316502;28;20079;-65
2021/09/05 16:56:59;;;;;;;50.60;43.40;;;;;;;;;;10303360;28;20080;-65
2021/09/05 17:01:57;;;;;;;28.90;18.10;;;;;;;;;;10293390;28;20075;-65
2021/09/05 17:06:57;;;;;;;56.63;50.85;;;;;;;;;;10286485;28;20459;-65
2021/09/05 17:12:01;;;;;;;21.92;16.77;;;;;;;;;;10289456;28;20523;-64
2021/09/05 17:16:59;;;;;;;16.77;11.93;;;;;;;;;;10310234;28;20049;-64
2021/09/05 17:21:59;;;;;;;15.93;10.98;;;;;;;;;;10305480;28;20075;-64
2021/09/05 17:27:00;;;;;;;8.50;6.70;;;;;;;;;;10301129;28;20079;-64
2021/09/05 17:32:02;;;;;;;35.75;29.40;;;;;;;;;;10292726;28;20218;-65
2021/09/05 17:37:02;;;;;;;19.77;17.50;;;;;;;;;;10283698;28;20487;-65
2021/09/05 17:42:01;;;;;;;9.38;6.25;;;;;;;;;;10313230;28;20158;-65
2021/09/05 17:47:00;;;;;;;13.68;6.38;;;;;;;;;;10317141;28;20076;-64
2021/09/05 17:51:59;;;;;;;13.02;8.75;;;;;;;;;;10315870;28;20517;-65
2021/09/05 17:56:58;;;;;;;13.30;10.40;;;;;;;;;;10317000;28;20501;-65
2021/09/05 18:01:57;;;;;;;13.45;8.57;;;;;;;;;;10315626;28;20076;-66
2021/09/05 18:06:57;;;;;;;10.90;7.00;;;;;;;;;;10309562;28;20056;-65
2021/09/05 18:11:57;;;;;;;24.40;15.77;;;;;;;;;;10309179;28;20422;-64
2021/09/05 18:16:56;;;;;;;13.32;8.90;;;;;;;;;;10309067;28;20068;-64
2021/09/05 18:21:56;;;;;;;28.33;25.27;;;;;;;;;;10315661;28;20052;-65
2021/09/05 18:26:57;;;;;;;14.38;9.18;;;;;;;;;;10296212;28;20084;-64
2021/09/05 18:31:56;;;;;;;12.45;6.97;;;;;;;;;;10289445;28;20076;-64
2021/09/05 18:36:54;;;;;;;11.50;7.43;;;;;;;;;;10291917;28;20064;-64
2021/09/05 18:41:55;;;;;;;9.52;7.57;;;;;;;;;;10290647;28;20056;-64
2021/09/05 18:46:53;;;;;;;9.68;6.82;;;;;;;;;;10282916;28;20080;-64
2021/09/05 18:51:54;;;;;;;10.18;7.65;;;;;;;;;;10285290;28;20079;-64
2021/09/05 18:56:56;;;;;;;11.90;7.15;;;;;;;;;;10285298;28;20064;-64
2021/09/05 19:01:55;;;;;;;15.90;9.77;;;;;;;;;;10286327;28;20103;-64
2021/09/05 19:06:55;;;;;;;14.20;7.20;;;;;;;;;;10283138;28;20091;-63
2021/09/05 19:11:56;;;;;;;9.20;7.22;;;;;;;;;;10289597;28;20076;-63
2021/09/05 19:16:54;;;;;;;15.40;10.05;;;;;;;;;;10286358;28;21293;-64
2021/09/05 19:21:54;;;;;;;11.43;9.23;;;;;;;;;;10282369;28;20068;-64
2021/09/05 19:26:52;;;;;;;9.45;7.10;;;;;;;;;;10285835;28;20104;-64
2021/09/05 19:31:51;;;;;;;9.70;7.93;;;;;;;;;;10278043;28;20448;-65
2021/09/05 19:36:50;;;;;;;8.00;6.45;;;;;;;;;;10283901;28;20089;-66
2021/09/05 19:41:51;;;;;;;9.70;6.72;;;;;;;;;;10283324;28;20079;-67
2021/09/05 19:46:50;;;;;;;9.15;8.23;;;;;;;;;;10283831;28;20502;-64
2021/09/05 19:51:50;;;;;;;10.63;6.15;;;;;;;;;;10292890;28;20078;-64
2021/09/05 19:56:48;;;;;;;7.70;5.47;;;;;;;;;;10291798;28;20076;-65
2021/09/05 20:01:46;;;;;;;14.45;9.13;;;;;;;;;;10250482;28;1136526;-65
2021/09/05 20:06:45;;;;;;;12.73;9.23;;;;;;;;;;10313430;28;20518;-63
2021/09/05 20:11:46;;;;;;;9.55;6.32;;;;;;;;;;10319753;28;20068;-64
2021/09/05 20:16:45;;;;;;;11.00;6.60;;;;;;;;;;10316249;28;20076;-65
2021/09/05 20:21:43;;;;;;;10.02;7.35;;;;;;;;;;10316487;28;20068;-64
2021/09/05 20:26:42;;;;;;;10.38;6.18;;;;;;;;;;10318910;28;20089;-65
2021/09/05 20:31:42;;;;;;;12.20;6.10;;;;;;;;;;10317865;28;20071;-65
2021/09/05 20:36:41;;;;;;;7.13;5.75;;;;;;;;;;10295188;28;20071;-65
2021/09/05 20:41:40;;;;;;;8.75;5.70;;;;;;;;;;10289925;28;20079;-65
2021/09/05 20:46:38;;;;;;;7.72;4.88;;;;;;;;;;10292680;28;20076;-65
2021/09/05 20:51:40;;;;;;;11.52;6.35;;;;;;;;;;10293914;28;20087;-64
2021/09/05 20:56:39;;;;;;;9.57;5.72;;;;;;;;;;10280605;28;20494;-64
2021/09/05 21:01:37;;;;;;;6.93;4.80;;;;;;;;;;10303670;28;20080;-64
2021/09/05 21:06:36;;;;;;;10.90;5.20;;;;;;;;;;10282813;28;20068;-64
2021/09/05 21:11:35;;;;;;;6.40;5.18;;;;;;;;;;10284577;28;20524;-65
2021/09/05 21:16:34;;;;;;;10.43;5.70;;;;;;;;;;10283005;28;20368;-65
2021/09/05 21:21:32;;;;;;;7.82;5.80;;;;;;;;;;10307995;28;20545;-65
2021/09/05 21:26:31;;;;;;;8.68;7.60;;;;;;;;;;10315177;28;20080;-64
2021/09/05 21:31:30;;;;;;;11.40;5.65;;;;;;;;;;10315541;28;20076;-64
2021/09/05 21:36:29;;;;;;;10.70;7.80;;;;;;;;;;10315458;28;20064;-65
2021/09/05 21:41:27;;;;;;;12.88;7.05;;;;;;;;;;10315385;28;20068;-66
2021/09/05 21:46:26;;;;;;;7.32;6.25;;;;;;;;;;10315528;28;20084;-65
2021/09/05 21:51:26;;;;;;;7.40;4.68;;;;;;;;;;10316270;28;20065;-66
2021/09/05 21:56:24;;;;;;;9.50;6.30;;;;;;;;;;10317304;28;20044;-65
2021/09/05 22:01:22;;;;;;;10.73;8.30;;;;;;;;;;10316341;28;20453;-65
2021/09/05 22:06:21;;;;;;;5.88;4.30;;;;;;;;;;10317674;28;20052;-65
2021/09/05 22:11:21;;;;;;;7.22;4.70;;;;;;;;;;10315991;28;20068;-66
2021/09/05 22:16:19;;;;;;;8.50;5.57;;;;;;;;;;10284698;28;20080;-65
2021/09/05 22:21:17;;;;;;;9.13;4.47;;;;;;;;;;10305663;28;20080;-64
2021/09/05 22:26:16;;;;;;;7.25;5.55;;;;;;;;;;10316462;28;20083;-65
2021/09/05 22:31:15;;;;;;;8.40;5.03;;;;;;;;;;10315744;28;20075;-65
2021/09/05 22:36:14;;;;;;;7.57;4.70;;;;;;;;;;10316134;28;20045;-62
2021/09/05 22:41:12;;;;;;;4.75;4.20;;;;;;;;;;10315606;28;20060;-63
2021/09/05 22:46:11;;;;;;;9.88;5.88;;;;;;;;;;10315302;28;20494;-64
2021/09/05 22:51:10;;;;;;;5.65;4.85;;;;;;;;;;10315008;28;20071;-65
2021/09/05 22:56:09;;;;;;;8.20;4.43;;;;;;;;;;10285426;28;20396;-65
2021/09/05 23:01:07;;;;;;;6.57;4.32;;;;;;;;;;10304105;28;20094;-65
2021/09/05 23:06:06;;;;;;;8.95;4.28;;;;;;;;;;10315050;28;20103;-65
2021/09/05 23:11:06;;;;;;;5.75;3.35;;;;;;;;;;10315097;28;20083;-65
2021/09/05 23:16:05;;;;;;;8.88;3.65;;;;;;;;;;10314954;28;20084;-65
2021/09/05 23:21:03;;;;;;;4.20;2.80;;;;;;;;;;10314806;28;20079;-64
2021/09/05 23:26:01;;;;;;;5.63;3.47;;;;;;;;;;10321781;28;20071;-64
2021/09/05 23:31:01;;;;;;;6.75;3.33;;;;;;;;;;10322116;28;20068;-64
2021/09/05 23:35:59;;;;;;;4.95;3.58;;;;;;;;;;10322444;28;20048;-64
2021/09/05 23:40:58;;;;;;;5.47;3.30;;;;;;;;;;10321613;28;20461;-65
2021/09/05 23:45:56;;;;;;;5.10;3.40;;;;;;;;;;10321603;28;20060;-64
2021/09/05 23:50:56;;;;;;;3.60;3.15;;;;;;;;;;10321752;28;20087;-64
2021/09/05 23:55:54;;;;;;;6.25;3.92;;;;;;;;;;10321781;28;20099;-64
